INFORMACIÓN METAR y TAF
METAR FOR LIEO
ADDS - METARS form results

(0003 UTC 14 June 2021)
Data provider http://aviationweather.gov/metar/data/
 
METAR text: LIEO 132350Z VRB01KT CAVOK 20/14 Q1018
Conditions at: LIEO (OLBIA/COSTA SMER, IT) observed 2350 UTC 13 June 2021
Temperature: 20.0°C (68°F)
Dewpoint: 14.0°C (57°F) [RH = 68%]
Pressure (altimeter): 30.06 inches Hg (1018.0 mb)
Winds: variable direction winds at 1 MPH (1 knots; 0.5 m/s)
Visibility: 6 or more miles (10+ km)
Ceiling: ceiling and visibility are OK
Clouds: unknown
Weather: no significant weather observed at this time

METAR text: LIEO 132320Z VRB01KT CAVOK 20/13 Q1018
Conditions at: LIEO (OLBIA/COSTA SMER, IT) observed 2320 UTC 13 June 2021
Temperature: 20.0°C (68°F)
Dewpoint: 13.0°C (55°F) [RH = 64%]
Pressure (altimeter): 30.06 inches Hg (1018.0 mb)
Winds: variable direction winds at 1 MPH (1 knots; 0.5 m/s)
Visibility: 6 or more miles (10+ km)
Ceiling: ceiling and visibility are OK
Clouds: unknown
Weather: no significant weather observed at this time

Forecast for: LIEO (OLBIA/COSTA SMER, IT)
Text: TAF LIEO 132300Z 1400/1424 24006KT 9999 FEW030
Forecast period: 0000 to 0800 UTC 14 June 2021
Forecast type: FROM: standard forecast or significant change
Winds: from the WSW (240 degrees) at 7 MPH (6 knots; 3.1 m/s)
Visibility: 6 or more miles (10+ km)
Ceiling: at least 12,000 feet AGL
Clouds: few clouds at 3000 feet AGL
Weather: no significant weather forecast for this period
Text: BECMG 1408/1410 05010KT
Forecast period: 0800 to 1700 UTC 14 June 2021
Forecast type: BECOMING: Conditions expected to become as follows by 1000 UTC 14 June 2021
Winds: from the NE (50 degrees) at 12 MPH (10 knots; 5.1 m/s)
Visibility: 6 or more miles (10+ km)
Ceiling: at least 12,000 feet AGL
Clouds: few clouds at 3000 feet AGL
Weather: no significant weather forecast for this period
Text: BECMG 1417/1419 VRB05KT
Forecast period: 1700 UTC 14 June 2021 to 0000 UTC 15 June 2021
Forecast type: BECOMING: Conditions expected to become as follows by 1900 UTC 14 June 2021
Winds: variable direction winds at 6 MPH (5 knots; 2.6 m/s)
Visibility: 6 or more miles (10+ km)
Ceiling: at least 12,000 feet AGL
Clouds: few clouds at 3000 feet AGL
Weather: no significant weather forecast for this period

 MAPA DE AEROPUERTO

 INFORMACIÓN DE PISTA
Pista 05 Longitud 8025 ft Ancho 148 ft
Elevación 35 ft Umbral desplazado 805 ft Rumbo de pista 53
Pista 23 Longitud 8025 ft Ancho 148 ft
Elevación 19 ft Umbral desplazado 495 ft Rumbo de pista 233

 FRECUANCIAS DEL AEROPUERTO
Tipo APP Nombre OLBIA RADA Frecuencia 125.95 MHZ
Tipo ATIS Nombre ATIS Frecuencia 113.9 MHZ
Tipo TWR Nombre OLBIA TWR Frecuencia 118.975 MHZ

 RADIO AYUDAS DEL AEROPUERTO
Tipo VOR-DME Nombre Olbia Costa Smeralda Frecuencia 113900 KHZ
Tipo NDB Nombre Olbia Costa Smeralda Frecuencia 357 KHZ




Normativa | Spanair Virtual © 2021 |